This is the latest recevied weather packets stored in our database for station/object DG5TS-10. If no packets are shown the sender has not sent any weather packets the latest 1 day(s).
| Time | Temp. | Humidity | Pressure | Rain* | Wind** | Luminosity | Snow |
|---|---|---|---|---|---|---|---|
| 1777739106 | 33.33° C | 15% | 1016.4 hPa | - | - | - | - |
| 1777738206 | 34.44° C | 13% | 1016.5 hPa | - | - | - | - |
| 1777737305 | 37.22° C | 11% | 1016.7 hPa | - | - | - | - |
| 1777736405 | 36.67° C | 11% | 1016.8 hPa | - | - | - | - |
| 1777735505 | 37.22° C | 11% | 1017.1 hPa | - | - | - | - |
| 1777734605 | 38.33° C | 10% | 1017.2 hPa | - | - | - | - |
| 1777733705 | 38.33° C | 10% | 1017.4 hPa | - | - | - | - |
| 1777732805 | 40° C | 9% | 1017.6 hPa | - | - | - | - |
| 1777731905 | 40° C | 9% | 1017.6 hPa | - | - | - | - |
| 1777731004 | 40° C | 9% | 1017.7 hPa | - | - | - | - |
| 1777730104 | 38.33° C | 10% | 1017.9 hPa | - | - | - | - |
| 1777729204 | 33.33° C | 13% | 1017.9 hPa | - | - | - | - |
| 1777728303 | 32.22° C | 15% | 1018.1 hPa | - | - | - | - |
| 1777727403 | 31.11° C | 15% | 1018.2 hPa | - | - | - | - |
| 1777726502 | 30.56° C | 16% | 1018.5 hPa | - | - | - | - |
| 1777725602 | 30° C | 16% | 1018.7 hPa | - | - | - | - |
| 1777724702 | 29.44° C | 17% | 1018.8 hPa | - | - | - | - |
| 1777723802 | 28.89° C | 17% | 1019.1 hPa | - | - | - | - |
| 1777722902 | 28.33° C | 18% | 1019.3 hPa | - | - | - | - |
| 1777722002 | 27.78° C | 19% | 1019.5 hPa | - | - | - | - |
| 1777721102 | 27.78° C | 18% | 1019.9 hPa | - | - | - | - |
| 1777720202 | 27.22° C | 19% | 1020 hPa | - | - | - | - |
| 1777719302 | 26.67° C | 19% | 1020.3 hPa | - | - | - | - |
| 1777718397 | 26.11° C | 20% | 1020.5 hPa | - | - | - | - |
| 1777717497 | 26.11° C | 19% | 1020.7 hPa | - | - | - | - |
* Rain since midnight (hover to see other rain measurements)
** Current wind speed in m/s (hover to see current wind gust speed)